Nestor — V2FB3 — position and weather

sailwx.info

Track history (hours):
 
Tides and Currents Weather Stations Pressure Air Temp Water Temp Dewpoint Dewpoint Depression Visibility Wind Speed Wind Dir Waves Ship Positions

Nestor

Last reported at 2015-Jul-04 01:31 UTC. Time now 2015-Jul-05 07:45 UTC.
Position N 49°25' W 004°31'.

Length 88 m; draft 5 m.

Type: Cargo ship. MMSI: 305620000.

Date/timePositionNaut miles runAvg speedWind from/ knotsBaromVisibWave heightAir tempDewpointWater temp
2015-Jul-04 01:31N 49°25' W 004°31'9 8.7
2015-Jul-04 00:32N 49°29' W 004°20'9 8.9
2015-Jul-03 23:32N 49°34' W 004°08'8 8.5
2015-Jul-03 22:33N 49°38' W 003°57'31 7.2
2015-Jul-03 18:15N 49°54' W 003°16'5 7.2
2015-Jul-03 17:30N 49°57' W 003°09'29 9.6
2015-Jul-03 14:31N 50°06' W 002°26'1211.9
2015-Jul-03 13:31N 50°09' W 002°08'1010.6
2015-Jul-03 12:33N 50°12' W 001°53'9 8.3
2015-Jul-03 11:31N 50°14' W 001°40'6 6.3
2015-Jul-03 10:33N 50°16' W 001°31'6 5.4
2015-Jul-03 09:30N 50°17' W 001°22'66 7.9
2015-Jul-03 01:10N 50°36' E 000°17'5 8.2
2015-Jul-03 00:33N 50°37' E 000°24'7 7.3
2015-Jul-02 23:33N 50°39' E 000°35'7 6.7
2015-Jul-02 22:33N 50°43' E 000°44'26 7.7
2015-Jul-02 19:12N 50°58' E 001°17'710.3
2015-Jul-02 18:33N 51°03' E 001°25'10 9.5
2015-Jul-02 17:33N 51°09' E 001°37'8 7.8
2015-Jul-02 16:33N 51°14' E 001°46'7 6.8
2015-Jul-02 15:33N 51°20' E 001°52'6 6.2
2015-Jul-02 14:33N 51°25' E 001°57'6 5.7
2015-Jul-02 13:33N 51°29' E 002°03'6 6.0
2015-Jul-02 12:33N 51°34' E 002°10'6 6.3
2015-Jul-02 11:33N 51°38' E 002°17'7 7.5
2015-Jul-02 10:33N 51°44' E 002°25'9 8.7
2015-Jul-02 09:30N 51°50' E 002°35'28 8.3
2015-Jul-02 06:11N 52°03' E 003°15'5 7.9
2015-Jul-02 05:32N 52°03' E 003°23'8 7.7
2015-Jul-02 04:33N 52°04' E 003°36'7 7.3
2015-Jul-02 03:33N 52°03' E 003°47'7 6.9
2015-Jul-02 02:33N 52°01' E 003°58'8 7.8
2015-Jul-02 01:34N 51°58' E 004°09'7 6.9
2015-Jul-02 00:33N 51°54' E 004°19'8 8.4
2015-Jul-01 23:34N 51°50' E 004°31'8 8.2
2015-Jul-01 22:34N 51°43' E 004°37'0 0.0
2015-Jun-30 17:33N 51°43' E 004°37'8 7.6
2015-Jun-30 16:34N 51°50' E 004°33'9 8.7
2015-Jun-30 15:33N 51°52' E 004°20'7 6.6
2015-Jun-30 14:33N 51°57' E 004°11'10 9.5
2015-Jun-30 13:33N 52°00' E 003°57'9 8.6
2015-Jun-30 12:33N 51°56' E 003°45'1 0.3
2015-Jun-30 09:26N 51°55' E 003°45'0 0.0
2015-Jun-30 07:20N 51°55' E 003°45'0 0.0
2015-Jun-30 06:32N 51°55' E 003°45'0 0.0
2015-Jun-30 05:32N 51°55' E 003°45'0 0.0
2015-Jun-30 04:32N 51°55' E 003°45'0 0.1
2015-Jun-30 03:20N 51°55' E 003°45'0 0.0
2015-Jun-30 02:32N 51°55' E 003°45'0 0.0
2015-Jun-30 01:17N 51°55' E 003°45'0 0.0
2015-Jun-30 00:32N 51°55' E 003°45'0 0.0
2015-Jun-29 23:32N 51°55' E 003°45'0 0.1
2015-Jun-29 22:08N 51°55' E 003°45'0 0.1
2015-Jun-29 21:29N 51°55' E 003°45'0 0.1
2015-Jun-29 20:29N 51°55' E 003°45'0 0.0
2015-Jun-29 19:32N 51°55' E 003°45'0 0.0
2015-Jun-29 18:17N 51°55' E 003°45'0 0.0
2015-Jun-29 17:29N 51°55' E 003°45'0 0.0
2015-Jun-29 16:32N 51°55' E 003°45'0 0.1
2015-Jun-29 15:32N 51°55' E 003°45'0 0.0
2015-Jun-29 14:32N 51°55' E 003°45'0 0.0
2015-Jun-29 13:29N 51°55' E 003°45'0 0.0
2015-Jun-29 12:14N 51°55' E 003°45'0 0.0
2015-Jun-29 11:05N 51°55' E 003°45'0 0.0
2015-Jun-29 09:20N 51°55' E 003°45'0 0.0
2015-Jun-29 08:23N 51°55' E 003°45'0 0.0
2015-Jun-29 07:32N 51°55' E 003°45'0 0.0
2015-Jun-29 06:29N 51°55' E 003°45'0 0.0
2015-Jun-29 05:26N 51°55' E 003°45'0 0.1
2015-Jun-29 04:32N 51°55' E 003°45'0 0.0
2015-Jun-29 03:29N 51°55' E 003°45'0 0.0
2015-Jun-29 02:26N 51°55' E 003°45'0 0.0
2015-Jun-29 01:29N 51°55' E 003°45'0 0.0
2015-Jun-29 00:29N 51°55' E 003°45'0 0.0
2015-Jun-28 23:14N 51°55' E 003°45'0 0.0
2015-Jun-28 20:32N 51°55' E 003°45'0 0.0
2015-Jun-28 19:17N 51°55' E 003°45'0 0.0
2015-Jun-28 18:29N 51°55' E 003°45'0 0.0
2015-Jun-28 17:11N 51°55' E 003°45'0 0.0
2015-Jun-28 16:32N 51°55' E 003°45'0 0.1
2015-Jun-28 15:32N 51°55' E 003°45'0 0.0
2015-Jun-28 14:32N 51°55' E 003°45'0 0.0
2015-Jun-28 13:32N 51°55' E 003°45'0 0.0
2015-Jun-28 12:17N 51°55' E 003°45'0 0.0
2015-Jun-28 11:23N 51°55' E 003°45'0 0.0
2015-Jun-28 10:26N 51°55' E 003°45'0 0.0
2015-Jun-28 08:17N 51°55' E 003°45'0 0.1
2015-Jun-28 07:05N 51°55' E 003°45'0 0.0
2015-Jun-28 06:20N 51°55' E 003°45'0 0.0
2015-Jun-28 05:17N 51°55' E 003°45'0 0.0
2015-Jun-28 04:29N 51°55' E 003°45'0 0.1
2015-Jun-28 03:14N 51°55' E 003°45'0 0.0
2015-Jun-28 02:29N 51°55' E 003°45'0 0.0
2015-Jun-28 00:32N 51°55' E 003°45'0 0.0
2015-Jun-27 22:29N 51°55' E 003°45'0 0.0
2015-Jun-27 21:23N 51°55' E 003°45'0 0.0
2015-Jun-27 20:29N 51°55' E 003°45'0 0.1
2015-Jun-27 19:26N 51°55' E 003°45'0 0.0
2015-Jun-27 18:20N 51°55' E 003°45'0 0.0
2015-Jun-27 17:26N 51°55' E 003°45'0 0.0
2015-Jun-27 16:29N 51°55' E 003°45'0 0.1
2015-Jun-27 15:32N 51°55' E 003°45'0 0.0
2015-Jun-27 14:08N 51°55' E 003°45'0 0.0
2015-Jun-27 13:26N 51°55' E 003°45'0 0.0
2015-Jun-27 12:32N 51°55' E 003°45'0 0.0
2015-Jun-27 11:29N 51°55' E 003°45'0 0.0
2015-Jun-27 10:32N 51°55' E 003°45'0 0.0
2015-Jun-27 09:32N 51°55' E 003°45'0 0.0
2015-Jun-27 08:32N 51°55' E 003°45'0 0.0
2015-Jun-27 07:26N 51°55' E 003°45'0 0.1
2015-Jun-27 06:33N 51°55' E 003°45'6 6.1
2015-Jun-27 05:32N 51°57' E 003°35'6 6.0
2015-Jun-27 04:31N 51°55' E 003°25'34 6.6
2015-Jun-26 23:17N 51°43' E 002°33'6 7.9
2015-Jun-26 22:32N 51°39' E 002°27'10 8.3
2015-Jun-26 21:21N 51°31' E 002°17'8 8.5
2015-Jun-26 20:25N 51°25' E 002°09'7 8.2
2015-Jun-26 19:34N 51°18' E 002°06'9 8.4
2015-Jun-26 18:32N 51°11' E 001°58'9 9.0
2015-Jun-26 17:33N 51°06' E 001°47'24 7.8
2015-Jun-26 14:29N 50°46' E 001°25'21 7.2
2015-Jun-26 11:33N 50°30' E 001°03'43 8.4
2015-Jun-26 06:25N 50°15' E 000°00'7 8.6
2015-Jun-26 05:33N 50°08' W 000°05'10 8.9
2015-Jun-26 04:24N 49°59' W 000°12'8 9.1
2015-Jun-26 03:33N 49°52' W 000°17'8 8.4
2015-Jun-26 02:33N 49°44' W 000°20'8 7.8
2015-Jun-26 01:33N 49°36' W 000°18'8 7.7
2015-Jun-26 00:33N 49°31' W 000°09'8 8.2
2015-Jun-25 23:33N 49°27' E 000°02'1110.8
2015-Jun-25 22:33N 49°26' E 000°19'1010.1
2015-Jun-25 21:33N 49°27' E 000°34'9 8.6
2015-Jun-25 20:33N 49°31' E 000°46'  
Track history (hours):
 
Tides and Currents Weather Stations Pressure Air Temp Water Temp Dewpoint Dewpoint Depression Visibility Wind Speed Wind Dir Waves Ship Positions

Nestor

Last reported at 2015-Jul-04 01:31 UTC. Time now 2015-Jul-05 07:45 UTC.
Position N 49°25' W 004°31'.

Length 88 m; draft 5 m.

Type: Cargo ship. MMSI: 305620000.

Date/timePositionNaut miles runAvg speedWind from/ knotsBaromVisibWave heightAir tempDewpointWater temp
2015-Jul-04 01:31N 49°25' W 004°31'9 8.7
2015-Jul-04 00:32N 49°29' W 004°20'9 8.9
2015-Jul-03 23:32N 49°34' W 004°08'8 8.5
2015-Jul-03 22:33N 49°38' W 003°57'31 7.2
2015-Jul-03 18:15N 49°54' W 003°16'5 7.2
2015-Jul-03 17:30N 49°57' W 003°09'29 9.6
2015-Jul-03 14:31N 50°06' W 002°26'1211.9
2015-Jul-03 13:31N 50°09' W 002°08'1010.6
2015-Jul-03 12:33N 50°12' W 001°53'9 8.3
2015-Jul-03 11:31N 50°14' W 001°40'6 6.3
2015-Jul-03 10:33N 50°16' W 001°31'6 5.4
2015-Jul-03 09:30N 50°17' W 001°22'66 7.9
2015-Jul-03 01:10N 50°36' E 000°17'5 8.2
2015-Jul-03 00:33N 50°37' E 000°24'7 7.3
2015-Jul-02 23:33N 50°39' E 000°35'7 6.7
2015-Jul-02 22:33N 50°43' E 000°44'26 7.7
2015-Jul-02 19:12N 50°58' E 001°17'710.3
2015-Jul-02 18:33N 51°03' E 001°25'10 9.5
2015-Jul-02 17:33N 51°09' E 001°37'8 7.8
2015-Jul-02 16:33N 51°14' E 001°46'7 6.8
2015-Jul-02 15:33N 51°20' E 001°52'6 6.2
2015-Jul-02 14:33N 51°25' E 001°57'6 5.7
2015-Jul-02 13:33N 51°29' E 002°03'6 6.0
2015-Jul-02 12:33N 51°34' E 002°10'6 6.3
2015-Jul-02 11:33N 51°38' E 002°17'7 7.5
2015-Jul-02 10:33N 51°44' E 002°25'9 8.7
2015-Jul-02 09:30N 51°50' E 002°35'28 8.3
2015-Jul-02 06:11N 52°03' E 003°15'5 7.9
2015-Jul-02 05:32N 52°03' E 003°23'8 7.7
2015-Jul-02 04:33N 52°04' E 003°36'7 7.3
2015-Jul-02 03:33N 52°03' E 003°47'7 6.9
2015-Jul-02 02:33N 52°01' E 003°58'8 7.8
2015-Jul-02 01:34N 51°58' E 004°09'7 6.9
2015-Jul-02 00:33N 51°54' E 004°19'8 8.4
2015-Jul-01 23:34N 51°50' E 004°31'8 8.2
2015-Jul-01 22:34N 51°43' E 004°37'0 0.0
2015-Jun-30 17:33N 51°43' E 004°37'8 7.6
2015-Jun-30 16:34N 51°50' E 004°33'9 8.7
2015-Jun-30 15:33N 51°52' E 004°20'7 6.6
2015-Jun-30 14:33N 51°57' E 004°11'10 9.5
2015-Jun-30 13:33N 52°00' E 003°57'9 8.6
2015-Jun-30 12:33N 51°56' E 003°45'1 0.3
2015-Jun-30 09:26N 51°55' E 003°45'0 0.0
2015-Jun-30 07:20N 51°55' E 003°45'0 0.0
2015-Jun-30 06:32N 51°55' E 003°45'0 0.0
2015-Jun-30 05:32N 51°55' E 003°45'0 0.0
2015-Jun-30 04:32N 51°55' E 003°45'0 0.1
2015-Jun-30 03:20N 51°55' E 003°45'0 0.0
2015-Jun-30 02:32N 51°55' E 003°45'0 0.0
2015-Jun-30 01:17N 51°55' E 003°45'0 0.0
2015-Jun-30 00:32N 51°55' E 003°45'0 0.0
2015-Jun-29 23:32N 51°55' E 003°45'0 0.1
2015-Jun-29 22:08N 51°55' E 003°45'0 0.1
2015-Jun-29 21:29N 51°55' E 003°45'0 0.1
2015-Jun-29 20:29N 51°55' E 003°45'0 0.0
2015-Jun-29 19:32N 51°55' E 003°45'0 0.0
2015-Jun-29 18:17N 51°55' E 003°45'0 0.0
2015-Jun-29 17:29N 51°55' E 003°45'0 0.0
2015-Jun-29 16:32N 51°55' E 003°45'0 0.1
2015-Jun-29 15:32N 51°55' E 003°45'0 0.0
2015-Jun-29 14:32N 51°55' E 003°45'0 0.0
2015-Jun-29 13:29N 51°55' E 003°45'0 0.0
2015-Jun-29 12:14N 51°55' E 003°45'0 0.0
2015-Jun-29 11:05N 51°55' E 003°45'0 0.0
2015-Jun-29 09:20N 51°55' E 003°45'0 0.0
2015-Jun-29 08:23N 51°55' E 003°45'0 0.0
2015-Jun-29 07:32N 51°55' E 003°45'0 0.0
2015-Jun-29 06:29N 51°55' E 003°45'0 0.0
2015-Jun-29 05:26N 51°55' E 003°45'0 0.1
2015-Jun-29 04:32N 51°55' E 003°45'0 0.0
2015-Jun-29 03:29N 51°55' E 003°45'0 0.0
2015-Jun-29 02:26N 51°55' E 003°45'0 0.0
2015-Jun-29 01:29N 51°55' E 003°45'0 0.0
2015-Jun-29 00:29N 51°55' E 003°45'0 0.0
2015-Jun-28 23:14N 51°55' E 003°45'0 0.0
2015-Jun-28 20:32N 51°55' E 003°45'0 0.0
2015-Jun-28 19:17N 51°55' E 003°45'0 0.0
2015-Jun-28 18:29N 51°55' E 003°45'0 0.0
2015-Jun-28 17:11N 51°55' E 003°45'0 0.0
2015-Jun-28 16:32N 51°55' E 003°45'0 0.1
2015-Jun-28 15:32N 51°55' E 003°45'0 0.0
2015-Jun-28 14:32N 51°55' E 003°45'0 0.0
2015-Jun-28 13:32N 51°55' E 003°45'0 0.0
2015-Jun-28 12:17N 51°55' E 003°45'0 0.0
2015-Jun-28 11:23N 51°55' E 003°45'0 0.0
2015-Jun-28 10:26N 51°55' E 003°45'0 0.0
2015-Jun-28 08:17N 51°55' E 003°45'0 0.1
2015-Jun-28 07:05N 51°55' E 003°45'0 0.0
2015-Jun-28 06:20N 51°55' E 003°45'0 0.0
2015-Jun-28 05:17N 51°55' E 003°45'0 0.0
2015-Jun-28 04:29N 51°55' E 003°45'0 0.1
2015-Jun-28 03:14N 51°55' E 003°45'0 0.0
2015-Jun-28 02:29N 51°55' E 003°45'0 0.0
2015-Jun-28 00:32N 51°55' E 003°45'0 0.0
2015-Jun-27 22:29N 51°55' E 003°45'0 0.0
2015-Jun-27 21:23N 51°55' E 003°45'0 0.0
2015-Jun-27 20:29N 51°55' E 003°45'0 0.1
2015-Jun-27 19:26N 51°55' E 003°45'0 0.0
2015-Jun-27 18:20N 51°55' E 003°45'0 0.0
2015-Jun-27 17:26N 51°55' E 003°45'0 0.0
2015-Jun-27 16:29N 51°55' E 003°45'0 0.1
2015-Jun-27 15:32N 51°55' E 003°45'0 0.0
2015-Jun-27 14:08N 51°55' E 003°45'0 0.0
2015-Jun-27 13:26N 51°55' E 003°45'0 0.0
2015-Jun-27 12:32N 51°55' E 003°45'0 0.0
2015-Jun-27 11:29N 51°55' E 003°45'0 0.0
2015-Jun-27 10:32N 51°55' E 003°45'0 0.0
2015-Jun-27 09:32N 51°55' E 003°45'0 0.0
2015-Jun-27 08:32N 51°55' E 003°45'0 0.0
2015-Jun-27 07:26N 51°55' E 003°45'0 0.1
2015-Jun-27 06:33N 51°55' E 003°45'6 6.1
2015-Jun-27 05:32N 51°57' E 003°35'6 6.0
2015-Jun-27 04:31N 51°55' E 003°25'34 6.6
2015-Jun-26 23:17N 51°43' E 002°33'6 7.9
2015-Jun-26 22:32N 51°39' E 002°27'10 8.3
2015-Jun-26 21:21N 51°31' E 002°17'8 8.5
2015-Jun-26 20:25N 51°25' E 002°09'7 8.2
2015-Jun-26 19:34N 51°18' E 002°06'9 8.4
2015-Jun-26 18:32N 51°11' E 001°58'9 9.0
2015-Jun-26 17:33N 51°06' E 001°47'24 7.8
2015-Jun-26 14:29N 50°46' E 001°25'21 7.2
2015-Jun-26 11:33N 50°30' E 001°03'43 8.4
2015-Jun-26 06:25N 50°15' E 000°00'7 8.6
2015-Jun-26 05:33N 50°08' W 000°05'10 8.9
2015-Jun-26 04:24N 49°59' W 000°12'8 9.1
2015-Jun-26 03:33N 49°52' W 000°17'8 8.4
2015-Jun-26 02:33N 49°44' W 000°20'8 7.8
2015-Jun-26 01:33N 49°36' W 000°18'8 7.7
2015-Jun-26 00:33N 49°31' W 000°09'8 8.2
2015-Jun-25 23:33N 49°27' E 000°02'1110.8
2015-Jun-25 22:33N 49°26' E 000°19'1010.1
2015-Jun-25 21:33N 49°27' E 000°34'9 8.6
2015-Jun-25 20:33N 49°31' E 000°46'  

Dump ship's entire track history